Shamrock Shores, Texas
Current Conditions -  °F | °C
As of 4:15 AM on Tuesday 27 Jan 2015 (Local Time) from KBWD Reporting Station
Overcast Overcast  
Wind Chill: 39°   Ceiling: 3500
Heat Index: 39°   Visibility: 10mi
Dew Point: 36°   Wind: 0mph
Humidity: 87%   Direction: NA
Pressure: 30.16"   Gusts: NA
Location:  31.6193°N, 98.9922°W
Report Text: KBWD 271015Z AUTO 00000KT 10SM OVC035 04/02 A3016 RMK AO2
Loading
Personal Weather Stations






























Interactive Weather Map New forecast layout! Learn more

10-Day Weather Forecast

Advertisements
Track Severe Weather on mobile